createdAt,value
2022-08-01T00:00:01.604Z,16.5
2022-08-01T00:10:01.727Z,16.5
2022-08-01T00:20:01.604Z,16.5
2022-08-01T00:30:12.937Z,16.5
2022-08-01T00:40:01.636Z,16.5
2022-08-01T00:50:01.739Z,16.5
2022-08-01T01:00:01.610Z,16.5
2022-08-01T01:10:01.689Z,16.5
2022-08-01T01:20:01.803Z,16.5
2022-08-01T01:30:01.705Z,16.5
2022-08-01T01:40:01.788Z,16.5
2022-08-01T01:50:01.712Z,16.5
2022-08-01T02:00:01.816Z,16.5
2022-08-01T02:10:01.691Z,16.5
2022-08-01T02:20:01.792Z,16.5
2022-08-01T02:30:01.686Z,16.5
2022-08-01T02:40:01.780Z,16.5
2022-08-01T02:50:01.882Z,16.5
2022-08-01T03:00:01.779Z,16.5
2022-08-01T03:10:01.884Z,16.5
2022-08-01T03:20:01.778Z,16.5
2022-08-01T03:30:01.869Z,16.5
2022-08-01T03:40:01.773Z,16.5
2022-08-01T03:50:01.881Z,16.5
2022-08-01T04:00:01.786Z,16.5
2022-08-01T04:10:01.960Z,16.5
2022-08-01T04:20:01.891Z,16.5
2022-08-01T04:30:01.984Z,16.5
2022-08-01T04:40:01.850Z,16.5
2022-08-01T04:50:01.946Z,16
2022-08-01T05:00:01.837Z,16
2022-08-01T05:10:01.935Z,16.5
2022-08-01T05:20:02.043Z,17
2022-08-01T05:30:01.997Z,18
2022-08-01T05:40:02.064Z,18
2022-08-01T05:50:01.954Z,18
2022-08-01T06:00:02.053Z,18.5
2022-08-01T06:10:01.955Z,21
2022-08-01T06:20:02.045Z,21.5
2022-08-01T06:30:01.961Z,22
2022-08-01T06:40:02.085Z,21.5
2022-08-01T06:50:01.961Z,21.5
2022-08-01T07:00:02.052Z,22
2022-08-01T07:10:02.161Z,22.5
2022-08-01T07:20:02.056Z,24
2022-08-01T07:30:02.163Z,26.5
2022-08-01T07:40:02.050Z,32.5
2022-08-01T07:50:02.170Z,35
2022-08-01T08:00:02.076Z,37.5
2022-08-01T08:10:02.163Z,36.5
2022-08-01T08:20:02.059Z,38.5
2022-08-01T08:30:02.166Z,39
2022-08-01T08:40:02.074Z,38
2022-08-01T08:50:02.170Z,39
2022-08-01T09:00:02.280Z,38
2022-08-01T09:10:02.227Z,39.5
2022-08-01T09:20:02.287Z,38.5
2022-08-01T09:30:02.380Z,40.5
2022-08-01T09:40:02.233Z,36.5
2022-08-01T09:50:04.439Z,37
2022-08-01T10:00:02.303Z,38
2022-08-01T10:10:02.304Z,41
2022-08-01T10:20:02.190Z,38
2022-08-01T10:30:06.914Z,29
2022-08-01T10:40:28.679Z,27
2022-08-01T10:50:02.305Z,26.5
2022-08-01T11:00:02.307Z,26.5
2022-08-01T11:10:02.405Z,24.5
2022-08-01T11:20:02.300Z,25
2022-08-01T11:30:02.417Z,24.5
2022-08-01T11:40:02.303Z,25
2022-08-01T11:50:02.405Z,25
2022-08-01T12:00:04.336Z,26
2022-08-01T12:10:02.391Z,26.5
2022-08-01T12:20:02.339Z,27
2022-08-01T12:30:02.516Z,27.5
2022-08-01T12:40:02.303Z,27.5
2022-08-01T12:50:02.400Z,27.5
2022-08-01T13:00:02.501Z,28
2022-08-01T13:10:02.459Z,27
2022-08-01T13:20:02.530Z,28
2022-08-01T13:30:02.396Z,27.5
2022-08-01T13:40:02.509Z,27.5
2022-08-01T13:50:02.427Z,28.5
2022-08-01T14:00:02.484Z,28
2022-08-01T14:10:04.657Z,27.5
2022-08-01T14:20:02.601Z,27.5
2022-08-01T14:30:04.084Z,27
2022-08-01T14:40:02.567Z,27.5
2022-08-01T14:50:02.791Z,27
2022-08-01T15:00:02.472Z,27
2022-08-01T15:10:02.564Z,27
2022-08-01T15:20:02.473Z,27
2022-08-01T15:30:02.581Z,26.5
2022-08-01T15:40:02.701Z,28
2022-08-01T15:50:02.561Z,28
2022-08-01T16:00:02.673Z,27.5
2022-08-01T16:10:03.412Z,27.5
2022-08-01T16:20:03.685Z,27.5
2022-08-01T16:30:02.621Z,26.5
2022-08-01T16:40:02.819Z,25.5
2022-08-01T16:50:02.765Z,25.5
2022-08-01T17:00:02.631Z,25.5
2022-08-01T17:10:02.734Z,24.5
2022-08-01T17:20:02.713Z,24.5
2022-08-01T17:30:02.974Z,24
2022-08-01T17:40:06.324Z,21.5
2022-08-01T17:50:02.799Z,21.5
2022-08-01T18:00:02.854Z,21.5
2022-08-01T18:10:02.766Z,21.5
2022-08-01T18:20:02.861Z,21.5
2022-08-01T18:30:02.709Z,21
2022-08-01T18:40:02.801Z,21
2022-08-01T18:50:02.703Z,20.5
2022-08-01T19:00:02.804Z,21
2022-08-01T19:10:02.706Z,20.5
2022-08-01T19:20:02.817Z,20.5
2022-08-01T19:30:02.839Z,20.5
2022-08-01T19:40:02.804Z,20.5
2022-08-01T19:50:03.485Z,20.5
2022-08-01T20:00:03.979Z,20.5
2022-08-01T20:10:03.005Z,20.5
2022-08-01T20:20:02.844Z,20.5
2022-08-01T20:30:02.953Z,20.5
2022-08-01T20:40:02.843Z,20.5
2022-08-01T20:50:02.799Z,19.5
2022-08-01T21:00:02.853Z,19.5
2022-08-01T21:10:02.961Z,20
2022-08-01T21:20:02.875Z,19
2022-08-01T21:30:03.668Z,19.5
2022-08-01T21:40:09.711Z,19.5
2022-08-01T21:50:02.972Z,19.5
2022-08-01T22:00:02.884Z,19.5
2022-08-01T22:10:02.991Z,19.5
2022-08-01T22:20:02.899Z,19.5
2022-08-01T22:30:03.008Z,19.5
2022-08-01T22:40:03.107Z,20
2022-08-01T22:50:03.001Z,20
2022-08-01T23:00:03.115Z,20
2022-08-01T23:10:03.041Z,20
2022-08-01T23:20:03.163Z,19.5
2022-08-01T23:30:02.999Z,20
2022-08-01T23:40:03.294Z,20
2022-08-01T23:50:03.218Z,20
